Skip Navigation Links
NOAA logo - Click to go to the NOAA homepage
NOAA's National Weather Service
Alaska Aviation Weather Unit
  NWS logo - Click to go to the NWS homepage
Left Navbar Graphic     22 AKDT = 06 GMT

   
NOAA is celebrating 200 years of science, service, and stewardship. Visit the NOAA 200th celebration Web site to learn more.
USA.gov is the U.S. Government's official Web portal to all Federal, state and local government Web resources and services.
Facebook
NWS on Facebook

Important Change Regarding the AAWU Web Presence

 

Over the last several months, the AAWU has been working to navigate its webpages to a nationally supported server. Security, as well as other needs, have necessitated the change.  We have been given an extension for the site changeover while we diligently work at addressing feedback received. As of July 14, 2017, aawu.arh.noaa.gov will be discontinued. The new AAWU web address is weather.gov/aawu. It is now live and will run in-parallel with the old site until it is discontinued on July 14, 2017. Please continue to send any feedback or questions regarding the new webpages to nws.ar.aawu.webauthors@noaa.gov.  Thank you for your patience during this time of transition.
AAWU Home :: Display TAF Add Bookmark
TAF PATA 260534Z 2606/2706 VRB06KT 6SM BR VCSH SCT025 BKN035 OVC050=

METAR PATA 260052Z VRB03KT 10SM FEW026 OVC080 19/13 A2987 RMK AO2 SLP115 THN FU ALQDS T01890128= METAR PATA 260152Z 14009KT 8SM FEW028 SCT042 OVC049 18/13 A2986 RMK AO2 SLP112 THN FU ALQDS T01830128= METAR PATA 260252Z 12006KT 10SM OVC080 18/13 A2985 RMK AO2 SLP108 T01780128 56012= METAR PATA 260352Z 10003KT 10SM OVC055 18/13 A2984 RMK AO2 SLP107 T01780133= METAR PATA 260452Z 12003KT 10SM SCT060 OVC085 18/13 A2984 RMK AO2 SLP105 T01780128= METAR PATA 260552Z AUTO 00000KT 10SM OVC060 17/13 A2983 RMK AO2 SLP104 T01720133 10189 20172 56004 TSNO=
 Alaska TAF Map

NOAA's National Weather Service
Alaska Aviation Weather Unit
6930 Sand Lake Road
Anchorage, AK 99502-1845
Disclaimer
Credits
Glossary
Privacy Policy
About Us
Career Opportunities
Contact AAWU Internet Services Site last modified: April, 17th 2012